Miho Air Base, Japan

2:03 AM JST on August 01, 2014 (GMT +0900)
Miho Aero (RJOH) Elev 20 ft | 35.49 °N, 133.24 °E | Change Station

Current weather conditions updated 1 hour ago

Partly Cloudy
Partly Cloudy
77 °F
Feels Like 77 °F
N
6
Wind Variable Wind from South

Today is forecast to be Cooler than yesterday. Late night thunderstorms tonight.

Today
High -- | Low -- °F
--% Chance of Precip.
Yesterday
High -- | Low -- °F
Precip. -- in
5:14 AM 7:11 PM
Waxing Crescent, 19% visible
Pressure 29.83 in
Visibility 6.2 miles
Clouds Few 6000 ft
Dew Point 73 °F
Humidity 89%
Rainfall 0.00 in
Snow Depth Not available.
UV 0 out of 12
Pollen Not available.
Air Quality Not available.
Flu Activity Not available.
METAR RJOH 311600Z 17005KT 9999 FEW060 BKN/// 25/23 Q1010

More Conditions Fewer Conditions

Pressure 29.83 in
Visibility 6.2 miles
Clouds Few 6000 ft
Dew Point 73 °F
Humidity 89%
Rainfall 0.00 in
Snow Depth Not available.
UV 0 out of 12
Pollen Not available.
Air Quality Not available.
Flu Activity Not available.
METAR RJOH 311600Z 17005KT 9999 FEW060 BKN/// 25/23 Q1010

More Conditions Fewer Conditions

10-Day Weather Forecast

Almanac

Astronomy

Aug. 01, 2014 Rise Set
Actual Time 5:14 AM JST 7:11 PM JST
Civil Twilight 4:46 AM JST 7:39 PM JST
Nautical Twilight 4:12 AM JST 8:13 PM JST
Astronomical Twilight 3:36 AM JST 8:49 PM JST
Moon 9:51 AM JST (8/1) 9:48 PM JST (8/1)
Length of Visible Light 14h 52m
Length of Day
13h 56m
Tomorrow will be 1m 40s shorter.
Waxing Crescent, 19% of the Moon is Illuminated
Jul 31
Waxing Crescent
Aug 3
First Quarter
Aug 10
Full
Aug 17
Last Quarter
Aug 25
New

Yesterday's Extremes

Country Highs Country Lows

Community

WunderPhotos

Upload Photos

1,739,379 photos uploaded!

WunderBlogs® & News

Nearby

Snow Depth

Not available.

Earthquake Activity

City Distance Mag. Time & Date
No recent earthquake activity has been reported nearby.
Minimum magnitude displayed is 2.5.

Coastal Water Temperatures

Place Temperature
No Stations Reporting

Nearby Weather Stations

There are no personal weather stations in this area.